Greensboro, Maryland
Current Conditions -  °F | °C
As of 3:45 PM on Tuesday 27 Jan 2015 (Local Time) from KESN Reporting Station
Scattered Clouds Scattered Clouds  
Wind Chill: 27°   Ceiling: Unl
Heat Index: 37°   Visibility: 10mi
Dew Point: 25°   Wind: 18mph
Humidity: 60%   Direction: 330°NNW
Pressure: 29.79"   Gusts: 26mph
Location:  38.97°N, 75.8°W
Report Text: KESN 272045Z 33016G23KT 10SM SCT023 03/M04 A2979
Loading
Personal Weather Stations






























Interactive Weather Map New forecast layout! Learn more

10-Day Weather Forecast

Advertisements
Track Severe Weather on mobile